createdAt,value
2018-07-30T00:04:36.192Z,0
2018-07-30T00:14:36.222Z,0
2018-07-30T00:24:36.147Z,0
2018-07-30T00:34:36.112Z,0
2018-07-30T00:44:36.106Z,0
2018-07-30T00:54:36.079Z,0
2018-07-30T01:04:36.102Z,0
2018-07-30T01:14:36.134Z,0
2018-07-30T01:24:36.093Z,0
2018-07-30T01:34:36.113Z,0
2018-07-30T01:44:36.086Z,0
2018-07-30T01:54:36.078Z,0
2018-07-30T02:04:36.091Z,0
2018-07-30T02:14:36.090Z,0
2018-07-30T02:24:36.088Z,0
2018-07-30T02:34:36.099Z,0
2018-07-30T02:44:36.071Z,0
2018-07-30T02:54:36.116Z,0
2018-07-30T03:04:36.068Z,0
2018-07-30T03:14:36.111Z,0
2018-07-30T03:24:36.073Z,0
2018-07-30T03:34:36.117Z,0
2018-07-30T03:44:36.150Z,0
2018-07-30T03:54:36.086Z,5
2018-07-30T04:04:36.150Z,15
2018-07-30T04:14:36.147Z,25
2018-07-30T04:24:36.127Z,40
2018-07-30T04:34:36.085Z,45
2018-07-30T04:44:36.136Z,50
2018-07-30T04:54:36.160Z,50
2018-07-30T05:04:36.102Z,75
2018-07-30T05:14:36.121Z,125
2018-07-30T05:24:36.101Z,100
2018-07-30T05:34:36.180Z,80
2018-07-30T05:44:36.103Z,90
2018-07-30T05:54:36.122Z,85
2018-07-30T06:04:36.123Z,110
2018-07-30T06:14:36.099Z,140
2018-07-30T06:24:36.163Z,150
2018-07-30T06:34:36.088Z,185
2018-07-30T06:44:36.207Z,230
2018-07-30T06:54:36.157Z,295
2018-07-30T07:04:36.147Z,320
2018-07-30T07:14:36.178Z,355
2018-07-30T07:24:36.181Z,340
2018-07-30T07:34:36.199Z,330
2018-07-30T07:44:36.140Z,385
2018-07-30T07:54:36.223Z,395
2018-07-30T08:04:36.204Z,425
2018-07-30T08:14:36.190Z,400
2018-07-30T08:24:36.180Z,420
2018-07-30T08:34:36.172Z,335
2018-07-30T08:44:36.181Z,215
2018-07-30T08:54:36.357Z,205
2018-07-30T09:04:36.208Z,240
2018-07-30T09:14:36.279Z,200
2018-07-30T09:24:36.150Z,175
2018-07-30T09:34:36.242Z,140
2018-07-30T09:44:36.347Z,125
2018-07-30T09:54:36.237Z,125
2018-07-30T10:04:36.223Z,125
2018-07-30T10:14:36.259Z,135
2018-07-30T10:24:36.233Z,135
2018-07-30T10:34:36.274Z,135
2018-07-30T10:44:36.197Z,140
2018-07-30T10:54:36.231Z,185
2018-07-30T11:04:36.313Z,140
2018-07-30T11:14:36.229Z,165
2018-07-30T11:24:36.257Z,155
2018-07-30T11:34:36.305Z,180
2018-07-30T11:44:36.481Z,160
2018-07-30T11:54:36.592Z,170
2018-07-30T12:04:36.295Z,230
2018-07-30T12:14:36.270Z,225
2018-07-30T12:24:36.264Z,210
2018-07-30T12:34:36.311Z,210
2018-07-30T12:44:36.416Z,230
2018-07-30T12:54:36.319Z,195
2018-07-30T13:04:36.421Z,175
2018-07-30T13:14:36.253Z,175
2018-07-30T13:24:36.379Z,150
2018-07-30T13:34:36.253Z,170
2018-07-30T13:44:36.322Z,155
2018-07-30T13:54:36.387Z,145
2018-07-30T14:04:36.318Z,175
2018-07-30T14:14:36.528Z,155
2018-07-30T14:24:36.417Z,195
2018-07-30T14:34:36.701Z,210
2018-07-30T14:44:37.064Z,250
2018-07-30T14:54:36.575Z,255
2018-07-30T15:04:36.929Z,245
2018-07-30T15:14:36.284Z,235
2018-07-30T15:24:36.280Z,210
2018-07-30T15:34:36.366Z,185
2018-07-30T15:44:38.384Z,145
2018-07-30T15:54:37.455Z,135
2018-07-30T16:04:36.418Z,155
2018-07-30T16:14:38.971Z,160
2018-07-30T16:24:41.431Z,135
2018-07-30T16:34:43.520Z,125
2018-07-30T16:45:00.224Z,140
2018-07-30T16:54:42.683Z,125
2018-07-30T17:14:36.382Z,95
2018-07-30T17:24:36.493Z,95
2018-07-30T17:34:39.270Z,85
2018-07-30T17:44:38.733Z,75
2018-07-30T17:54:38.798Z,65
2018-07-30T18:04:36.917Z,40
2018-07-30T18:14:36.382Z,40
2018-07-30T18:24:36.383Z,40
2018-07-30T18:34:36.418Z,35
2018-07-30T18:44:36.354Z,30
2018-07-30T18:54:36.422Z,25
2018-07-30T19:04:36.530Z,15
2018-07-30T19:14:38.490Z,10
2018-07-30T19:24:38.739Z,0
2018-07-30T19:34:38.800Z,0
2018-07-30T19:44:39.030Z,0
2018-07-30T19:54:39.698Z,0
2018-07-30T20:04:40.594Z,0
2018-07-30T20:14:38.974Z,0
2018-07-30T20:24:38.277Z,0
2018-07-30T20:34:36.404Z,0
2018-07-30T20:44:36.407Z,0
2018-07-30T20:54:36.505Z,0
2018-07-30T21:04:36.428Z,0
2018-07-30T21:14:36.450Z,0
2018-07-30T21:24:36.503Z,0
2018-07-30T21:34:43.518Z,0
2018-07-30T21:44:46.119Z,0
2018-07-30T21:54:39.956Z,0
2018-07-30T22:04:52.916Z,0
2018-07-30T22:14:42.051Z,0
2018-07-30T22:24:37.546Z,0
2018-07-30T22:34:42.846Z,0
2018-07-30T22:44:42.444Z,0
2018-07-30T22:54:37.495Z,0
2018-07-30T23:04:42.758Z,0
2018-07-30T23:14:47.161Z,0
2018-07-30T23:24:44.059Z,0
2018-07-30T23:34:36.465Z,0
2018-07-30T23:44:39.488Z,0
2018-07-30T23:54:36.414Z,0
